Detall de PIREP

Printer-friendly versionPDF version

[2011/02/11 09:33:00]
Flight IATA:CT3233
Pilot Number:011
Company ICAO:CAT
Aircraft Type:B738/F
PAX:160
Departing Airport: LEMD
Destination Airport: LEPA
Alternate Airport:LEBL
Online: VATSIM
Route:NANDO UW107 CLS UN733 GATOS
Flight Level:F300
No Slew and time accel
No pause
Crash detect
Detect pilot in Cockpit between each 30 and 45 minutes
09:33 Zero fuel Weight: 137000 Lbs, Fuel Weight: 12081 Lbs
09:33 VATSIM:LEMD 110900Z 00000KT 9000 4400 NSC 02/00 Q1022 NOSIG
09:33 VATSIM:LEPA 110900Z 00000KT 9999 FEW018 10/08 Q1024 NOSIG
09:45 Parking Brakes off
09:56 Take-off
09:56 Take off Weight: 148175 Lbs
09:56 Wind: 043º @ 000 Knots Heading: 358º
09:56 POS N40º 31´ 03´´ W003º 33´ 33´´
09:56 Flaps:5 at 172 Knots
09:56 Gear Up: 175 Knots
09:57 Flaps:4 at 200 Knots
09:57 Flaps:3 at 201 Knots
09:57 Flaps:2 at 215 Knots
09:57 Flaps:1 at 216 Knots
09:57 Flaps:0 at 223 Knots
10:07 TOC
10:07 Fuel Weight: 8467 Lb
10:11 Wind:103º@002 Knots Heading: 115º Ground Speed: 442 Knots Altitude 30255 ft
10:26 Wind:210º@005 Knots Heading: 098º Ground Speed: 449 Knots Altitude 30255 ft
10:30 TOD
10:30 Fuel Weight: 6266 Lb
10:41 Wind:114º@008 Knots Heading: 093º Ground Speed: 353 Knots Altitude 13858 ft
10:50 Flaps:1 at 219 Knots
10:50 Flaps:2 at 218 Knots
10:51 Flaps:3 at 213 Knots
10:51 Flaps:4 at 212 Knots
10:52 Flaps:5 at 190 Knots
10:52 Flaps:6 at 188 Knots
10:52 Gear Down: 186 Knots
10:53 Flaps:7 at 166 Knots
10:53 Flaps:8 at 165 Knots
10:54 TouchDown:Rate -106 ft/min Speed: 114 Knots
10:55 VATSIM:LEPA 111030Z VRB01KT 9999 FEW022 14/09 Q1023 NOSIG
10:55 Land
10:55 Wind:156º@005 Knots
10:55 Heading: 060º
10:55 Flight Duration: 00:59
10:55 Landing Weight: 142276 Lbs
10:55 POS N39º 33´ 11´´ E002º 43´ 24´´
11:00 Parking brakes on
11:00 Block to Block Duration: 01:15
11:00 Final Fuel: 4825 Lbls
11:00 Spent Fuel: 7255 Lbls
11:00 Flight Length: 268 NM
11:00 TOD Land Length: 43 NM

Exportar CSV

Powered by Drupal - Modified by Danger4k